createdAt,value
2023-04-22T00:24:29.981Z,12.70
2023-04-22T00:29:25.662Z,12.80
2023-04-22T00:36:46.856Z,12.70
2023-04-22T00:44:10.154Z,12.80
2023-04-22T00:46:39.044Z,12.80
2023-04-22T00:49:06.843Z,12.80
2023-04-22T00:56:33.490Z,12.70
2023-04-22T01:01:28.002Z,12.60
2023-04-22T01:06:24.315Z,12.60
2023-04-22T01:08:51.299Z,12.70
2023-04-22T01:11:18.901Z,12.70
2023-04-22T01:13:46.154Z,12.60
2023-04-22T01:16:13.693Z,9.20
2023-04-22T01:30:56.265Z,12.40
2023-04-22T01:50:34.464Z,11.90
2023-04-22T01:53:01.631Z,11.80
2023-04-22T02:05:17.992Z,11.70
2023-04-22T02:15:11.539Z,11.50
2023-04-22T02:22:33.524Z,11.50
2023-04-22T02:47:07.069Z,11.20
2023-04-22T02:49:33.900Z,11.30
2023-04-22T02:56:54.640Z,11.30
2023-04-22T03:06:59.750Z,11.30
2023-04-22T03:14:20.650Z,11.40
2023-04-22T04:03:58.914Z,11.50
2023-04-22T04:19:01.460Z,11.60
2023-04-22T04:31:29.043Z,11.50
2023-04-22T04:33:57.704Z,11.50
2023-04-22T04:51:26.500Z,11.50
2023-04-22T05:08:58.969Z,11.80
2023-04-22T05:16:27.275Z,11.90
2023-04-22T05:33:41.024Z,12.20
2023-04-22T05:51:03.942Z,12.70
2023-04-22T05:58:27.322Z,12.90
2023-04-22T06:00:55.215Z,12.90
2023-04-22T06:33:21.147Z,13.90
2023-04-22T06:38:15.144Z,14.10
2023-04-22T06:40:56.637Z,14.20
2023-04-22T06:59:02.718Z,14.70
2023-04-22T07:13:58.228Z,15.10
2023-04-22T07:23:46.252Z,15.60
2023-04-22T07:28:39.956Z,15.80
2023-04-22T07:55:38.143Z,17.00
2023-04-22T07:58:06.574Z,17.00
2023-04-22T08:00:35.030Z,17.00
2023-04-22T08:03:02.882Z,17.20
2023-04-22T08:05:30.087Z,17.20
2023-04-22T08:10:23.902Z,17.30
2023-04-22T08:15:17.836Z,17.40
2023-04-22T08:20:12.234Z,17.50
2023-04-22T08:22:38.882Z,17.60
2023-04-22T08:25:06.646Z,17.60
2023-04-22T08:32:27.943Z,17.90
2023-04-22T08:35:01.409Z,18.00
2023-04-22T08:39:58.365Z,18.20
2023-04-22T08:42:26.739Z,18.20
2023-04-22T08:44:54.176Z,18.30
2023-04-22T08:47:21.497Z,18.30
2023-04-22T08:49:50.232Z,18.30
2023-04-22T08:54:43.915Z,18.40
2023-04-22T08:57:11.280Z,18.50
2023-04-22T08:59:39.079Z,18.60
2023-04-22T09:02:08.640Z,18.60
2023-04-22T09:09:31.999Z,18.80
2023-04-22T09:11:58.861Z,18.90
2023-04-22T09:14:26.611Z,19.00
2023-04-22T09:16:53.449Z,19.10
2023-04-22T09:19:24.563Z,19.10
2023-04-22T09:21:54.122Z,19.10
2023-04-22T09:24:21.143Z,19.30
2023-04-22T09:26:48.567Z,19.40
2023-04-22T09:29:16.247Z,19.50
2023-04-22T09:31:47.722Z,19.50
2023-04-22T09:36:43.629Z,19.70
2023-04-22T09:39:10.409Z,19.50
2023-04-22T09:41:39.345Z,19.80
2023-04-22T09:44:10.464Z,19.80
2023-04-22T09:46:37.173Z,19.80
2023-04-22T09:49:03.799Z,19.90
2023-04-22T09:51:30.688Z,19.90
2023-04-22T09:54:04.096Z,20.00
2023-04-22T09:56:50.497Z,20.00
2023-04-22T09:59:28.172Z,20.00
2023-04-22T10:02:04.409Z,20.10
2023-04-22T10:04:31.176Z,20.20
2023-04-22T10:06:58.044Z,20.30
2023-04-22T10:09:25.570Z,20.30
2023-04-22T10:11:54.500Z,20.50
2023-04-22T10:14:25.347Z,20.60
2023-04-22T10:16:59.474Z,20.60
2023-04-22T10:19:27.286Z,20.70
2023-04-22T10:21:56.984Z,20.70
2023-04-22T10:24:27.466Z,20.80
2023-04-22T10:26:59.923Z,20.90
2023-04-22T10:29:28.028Z,21.10
2023-04-22T10:32:10.230Z,21.10
2023-04-22T10:34:38.913Z,21.20
2023-04-22T10:37:11.715Z,21.30
2023-04-22T10:39:40.522Z,21.30
2023-04-22T10:42:10.303Z,21.40
2023-04-22T10:44:53.939Z,21.40
2023-04-22T10:47:34.767Z,21.40
2023-04-22T10:50:30.911Z,21.50
2023-04-22T10:53:36.332Z,21.60
2023-04-22T10:56:17.911Z,21.70
2023-04-22T10:58:44.568Z,21.70
2023-04-22T11:01:17.213Z,21.80
2023-04-22T11:03:44.165Z,21.70
2023-04-22T11:06:18.935Z,21.80
2023-04-22T11:08:50.226Z,21.90
2023-04-22T11:11:18.662Z,21.90
2023-04-22T11:16:14.060Z,22.00
2023-04-22T11:18:40.768Z,22.00
2023-04-22T11:21:09.221Z,22.00
2023-04-22T11:26:05.946Z,22.10
2023-04-22T11:28:32.977Z,22.20
2023-04-22T11:31:07.188Z,22.10
2023-04-22T11:33:34.814Z,22.20
2023-04-22T11:36:02.087Z,22.30
2023-04-22T11:38:28.901Z,22.30
2023-04-22T11:40:57.878Z,22.30
2023-04-22T11:43:24.901Z,22.40
2023-04-22T11:45:51.782Z,22.40
2023-04-22T11:48:18.474Z,22.50
2023-04-22T11:50:45.418Z,22.50
2023-04-22T11:53:23.912Z,22.50
2023-04-22T11:55:51.328Z,22.50
2023-04-22T11:58:27.053Z,22.50
2023-04-22T12:00:56.164Z,22.70
2023-04-22T12:03:25.574Z,22.60
2023-04-22T12:05:57.743Z,23.20
2023-04-22T12:08:33.118Z,18.20
2023-04-22T12:11:02.458Z,22.70
2023-04-22T12:13:32.909Z,22.80
2023-04-22T12:16:01.835Z,24.40
2023-04-22T12:18:30.604Z,22.90
2023-04-22T12:21:13.628Z,22.90
2023-04-22T12:23:51.170Z,22.90
2023-04-22T12:26:20.094Z,23.00
2023-04-22T12:31:15.419Z,19.00
2023-04-22T12:33:42.964Z,23.10
2023-04-22T12:36:09.873Z,23.20
2023-04-22T12:38:36.758Z,23.20
2023-04-22T12:41:04.930Z,23.20
2023-04-22T12:43:33.402Z,23.20
2023-04-22T12:46:00.170Z,23.20
2023-04-22T12:48:26.897Z,23.10
2023-04-22T12:50:53.586Z,23.20
2023-04-22T12:53:21.861Z,23.30
2023-04-22T12:55:48.546Z,23.40
2023-04-22T13:00:42.559Z,23.50
2023-04-22T13:03:09.437Z,23.30
2023-04-22T13:05:36.155Z,23.40
2023-04-22T13:08:07.486Z,23.40
2023-04-22T13:10:35.027Z,23.40
2023-04-22T13:13:17.055Z,23.50
2023-04-22T13:15:47.602Z,23.60
2023-04-22T13:18:16.107Z,23.60
2023-04-22T13:20:42.834Z,23.60
2023-04-22T13:23:10.403Z,23.60
2023-04-22T13:25:37.125Z,23.60
2023-04-22T13:28:03.835Z,23.70
2023-04-22T13:30:30.433Z,23.50
2023-04-22T13:32:57.069Z,23.70
2023-04-22T13:35:24.248Z,23.50
2023-04-22T13:37:51.088Z,23.50
2023-04-22T13:40:17.706Z,22.40
2023-04-22T13:42:44.417Z,23.50
2023-04-22T13:45:11.257Z,23.40
2023-04-22T13:47:37.871Z,23.40
2023-04-22T13:50:05.963Z,23.40
2023-04-22T13:52:32.794Z,23.40
2023-04-22T13:54:59.392Z,23.50
2023-04-22T13:57:26.023Z,23.30
2023-04-22T13:59:52.632Z,23.30
2023-04-22T14:02:19.259Z,23.40
2023-04-22T14:04:46.022Z,23.30
2023-04-22T14:07:12.969Z,23.30
2023-04-22T14:09:39.782Z,23.40
2023-04-22T14:12:07.868Z,23.30
2023-04-22T14:14:34.643Z,23.50
2023-04-22T14:17:01.481Z,23.50
2023-04-22T14:19:30.138Z,23.50
2023-04-22T14:21:56.843Z,23.50
2023-04-22T14:24:24.333Z,23.50
2023-04-22T14:26:52.280Z,23.50
2023-04-22T14:29:19.046Z,23.60
2023-04-22T14:31:45.761Z,23.60
2023-04-22T14:34:12.383Z,23.60
2023-04-22T14:36:39.007Z,23.70
2023-04-22T14:39:06.613Z,23.70
2023-04-22T14:41:33.260Z,23.80
2023-04-22T14:43:59.919Z,23.70
2023-04-22T14:46:26.839Z,23.80
2023-04-22T14:48:53.523Z,23.70
2023-04-22T14:51:20.157Z,23.50
2023-04-22T14:53:46.885Z,23.40
2023-04-22T14:58:40.735Z,23.50
2023-04-22T15:01:07.746Z,23.50
2023-04-22T15:06:02.900Z,23.50
2023-04-22T15:08:29.657Z,23.30
2023-04-22T15:10:56.557Z,23.20
2023-04-22T15:13:23.204Z,27.00
2023-04-22T15:15:49.951Z,23.20
2023-04-22T15:18:16.641Z,23.20
2023-04-22T15:20:43.303Z,23.10
2023-04-22T15:23:09.990Z,23.10
2023-04-22T15:25:37.382Z,23.00
2023-04-22T15:28:04.127Z,22.90
2023-04-22T15:30:30.774Z,22.90
2023-04-22T15:32:57.508Z,22.60
2023-04-22T15:35:24.289Z,22.70
2023-04-22T15:37:50.976Z,22.70
2023-04-22T15:40:17.580Z,22.60
2023-04-22T15:42:44.247Z,22.60
2023-04-22T15:45:11.292Z,22.50
2023-04-22T15:47:38.009Z,22.50
2023-04-22T15:50:09.033Z,22.50
2023-04-22T15:55:07.941Z,22.30
2023-04-22T15:57:35.388Z,22.20
2023-04-22T16:00:11.658Z,22.20
2023-04-22T16:02:43.794Z,22.00
2023-04-22T16:05:11.752Z,21.70
2023-04-22T16:07:38.962Z,21.40
2023-04-22T16:10:06.427Z,21.20
2023-04-22T16:12:34.244Z,21.10
2023-04-22T16:17:29.647Z,20.90
2023-04-22T16:22:23.536Z,20.40
2023-04-22T16:32:13.677Z,20.10
2023-04-22T16:37:08.052Z,20.00
2023-04-22T16:39:34.893Z,19.90
2023-04-22T16:42:02.292Z,19.80
2023-04-22T16:44:29.008Z,19.70
2023-04-22T17:04:08.553Z,19.30
2023-04-22T17:13:59.947Z,19.20
2023-04-22T17:16:26.734Z,19.20
2023-04-22T17:21:22.960Z,17.30
2023-04-22T17:36:07.507Z,18.90
2023-04-22T17:43:28.379Z,18.80
2023-04-22T18:00:38.071Z,18.60
2023-04-22T18:03:05.660Z,18.60
2023-04-22T18:08:03.988Z,18.70
2023-04-22T18:12:58.242Z,18.60
2023-04-22T18:20:20.129Z,18.50
2023-04-22T18:22:53.703Z,18.50
2023-04-22T18:30:17.032Z,18.40
2023-04-22T18:32:43.824Z,18.30
2023-04-22T18:42:32.802Z,18.20
2023-04-22T18:44:59.506Z,18.20
2023-04-22T18:47:26.649Z,18.20
2023-04-22T18:52:20.472Z,18.20
2023-04-22T18:59:42.195Z,18.10
2023-04-22T19:02:13.377Z,18.10
2023-04-22T19:09:35.833Z,18.10
2023-04-22T19:31:46.244Z,17.70
2023-04-22T19:39:08.267Z,17.60
2023-04-22T19:51:23.900Z,17.30
2023-04-22T19:56:18.564Z,17.20
2023-04-22T20:13:30.946Z,17.00
2023-04-22T20:18:26.852Z,16.90
2023-04-22T20:20:58.282Z,16.90
2023-04-22T20:23:26.365Z,16.90
2023-04-22T20:25:55.853Z,16.80
2023-04-22T20:28:23.511Z,16.80
2023-04-22T20:40:44.600Z,16.20
2023-04-22T20:53:03.169Z,15.30
2023-04-22T20:55:29.858Z,16.40
2023-04-22T21:02:51.332Z,16.30
2023-04-22T21:07:49.634Z,16.20
2023-04-22T21:10:16.656Z,16.20
2023-04-22T21:17:44.369Z,16.20
2023-04-22T21:22:42.324Z,16.20
2023-04-22T21:25:09.725Z,16.20
2023-04-22T21:39:54.603Z,16.00
2023-04-22T22:09:24.288Z,15.90
2023-04-22T22:24:09.323Z,15.80
2023-04-22T22:48:40.855Z,15.30
2023-04-22T23:01:00.506Z,15.00
2023-04-22T23:23:04.852Z,14.80
2023-04-22T23:27:58.995Z,14.70
2023-04-22T23:32:57.252Z,14.70
2023-04-22T23:35:27.284Z,14.60
2023-04-22T23:37:54.524Z,14.70
2023-04-22T23:50:10.161Z,14.50
2023-04-22T23:55:11.751Z,14.60
